• Join FlightAware (Why Join?)
  • Login
  • US Flag 
03:45AM EDT


 

Airport Tracker/Info


-or-


 

Live Flight TrackerFlight Track Log ✈ DAL1981 ✈ 23-Dec-2013 ✈ KSMF - KMSP

Flight Track Log - Related Links

Times and Time Zones

All times are in EST time to prevent confusion due to time zone crossing. See the DAL1981 flight status page for this flight to view local times or setup timezone preferences in your user account.

Time Position Orientation Groundspeed Altitude Reporting Facility
EST Latitude Longitude Course Direction KTS MPH feet Rate Location/Type
04:23PM 38.7333 -121.5833 72° East 166 191 1,400  Level Northern Cal TRACON
04:24PM 38.7500 -121.5333 67° East 233 268 2,000 1,800 Climbing Northern Cal TRACON
04:25PM 38.7333 -121.4333 102° East 272 313 5,000 2,880 Climbing Northern Cal TRACON
04:26PM 38.8572 -121.1542 73° East  Level Estimated
04:26PM 38.7333 -121.3333 90° East 299 344 7,800  Level Northern Cal TRACON
04:27PM 38.9107 -121.0082 77° East  Level Estimated
04:28PM 38.9641 -120.8620 76° East  Level Estimated
04:28PM 38.7361 -121.0908 89° East 361 415 10,500  Level Oakland Center
04:29PM 39.0173 -120.7156 72° East  Level Estimated
04:29PM 38.7342 -120.9436 91° East 400 460 12,400  Level Oakland Center
04:30PM 38.7308 -120.7936 92° East 415 478 14,200 1,680 Climbing Oakland Center
04:31PM 38.7636 -120.6506 74° East 436 502 15,900 1,560 Climbing Oakland Center
04:32PM 38.8431 -120.5336 49° Northeast 437 503 17,400 1,320 Climbing Oakland Center
04:33PM 38.9244 -120.4131 49° Northeast 445 512 18,700 1,380 Climbing Oakland Center
04:34PM 39.0231 -120.2658 49° Northeast 453 521 20,300 1,260 Climbing Oakland Center
04:36PM 39.1067 -120.1389 50° Northeast 464 534 21,400 1,080 Climbing Oakland Center
04:37PM 39.1931 -120.0119 49° Northeast 474 545 22,600 960 Climbing Oakland Center
04:38PM 39.2814 -119.8800 49° Northeast 484 557 23,400 840 Climbing Oakland Center
04:39PM 39.3719 -119.7467 49° Northeast 491 565 24,400 900 Climbing Oakland Center
04:40PM 39.4603 -119.6103 50° Northeast 492 566 25,300 780 Climbing Oakland Center
04:41PM 39.5508 -119.4717 50° Northeast 499 574 26,100 1,020 Climbing Oakland Center
04:42PM 39.6403 -119.3328 50° Northeast 501 577 27,500 1,260 Climbing Oakland Center
04:43PM 39.7292 -119.1961 50° Northeast 494 568 28,800 1,200 Climbing Oakland Center
04:44PM 39.8331 -119.0339 50° Northeast 485 558 30,000 1,020 Climbing Oakland Center
04:45PM 39.9203 -118.8978 50° Northeast 485 558 30,900 900 Climbing Oakland Center
04:46PM 40.0067 -118.7631 50° Northeast 483 556 31,900 960 Climbing Oakland Center
04:47PM 40.0897 -118.6272 51° Northeast 479 551 32,900 480 Climbing Oakland Center
04:48PM 40.1544 -118.4744 61° Northeast 479 551 33,000  Climbing Oakland Center
04:49PM 40.2019 -118.2986 70° East 504 580 33,000  Level Oakland Center
04:50PM 40.2492 -118.1239 70° East 506 582 33,000  Level Oakland Center
04:51PM 40.3000 -117.9372 70° East 504 580 33,000  Level Oakland Center
04:52PM 40.3369 -117.7989 71° East 505 581 33,000  Level Salt Lake Center
04:53PM 40.3900 -117.6056 70° East 505 581 33,000  Level Salt Lake Center
04:54PM 40.4342 -117.4383 71° East 505 581 33,000  Level Salt Lake Center
04:55PM 40.4861 -117.2428 71° East 506 582 33,000  Level Salt Lake Center
04:56PM 40.5303 -117.0736 71° East 505 581 33,000  Level Salt Lake Center
04:57PM 40.5772 -116.9044 70° East 506 582 33,000  Level Salt Lake Center
04:58PM 40.6489 -116.7208 63° Northeast 498 573 33,000  Level Salt Lake Center
04:59PM 40.7097 -116.5633 63° Northeast 500 575 33,000  Level Salt Lake Center
05:00PM 40.7706 -116.4072 63° Northeast 500 575 33,000  Level Salt Lake Center
05:01PM 40.8411 -116.2258 63° Northeast 497 572 33,000  Level Salt Lake Center
05:02PM 40.9017 -116.0653 63° Northeast 504 580 33,000  Level Salt Lake Center
05:03PM 40.9714 -115.8825 63° Northeast 500 575 33,000  Level Salt Lake Center
05:04PM 41.0317 -115.7261 63° Northeast 498 573 33,000  Level Salt Lake Center
05:05PM 41.0997 -115.5397 64° Northeast 502 578 33,000  Level Salt Lake Center
05:06PM 41.1597 -115.3833 63° Northeast 499 574 33,000  Level Salt Lake Center
05:07PM 41.2186 -115.2236 64° Northeast 500 575 33,000  Level Salt Lake Center
05:08PM 41.2881 -115.0372 64° Northeast 503 579 33,000  Level Salt Lake Center
05:09PM 41.3464 -114.8769 64° Northeast 504 580 33,000  Level Salt Lake Center
05:10PM 41.4061 -114.7139 64° Northeast 504 580 33,000  Level Salt Lake Center
05:11PM 41.4781 -114.5144 64° Northeast 499 574 33,000  Level Salt Lake Center
05:12PM 41.5392 -114.3469 64° Northeast 502 578 33,000  Level Salt Lake Center
05:13PM 41.5992 -114.1786 64° Northeast 502 578 33,000  Level Salt Lake Center
05:14PM 41.6589 -114.0114 64° Northeast 500 575 33,000  Level Salt Lake Center
05:15PM 41.7194 -113.8436 64° Northeast 501 577 33,000  Level Salt Lake Center
05:16PM 41.7794 -113.6742 65° Northeast 503 579 33,000  Level Salt Lake Center
05:18PM 41.8383 -113.5033 65° Northeast 504 580 33,000  Level Salt Lake Center
05:19PM 41.8972 -113.3350 65° Northeast 501 577 33,000  Level Salt Lake Center
05:20PM 41.9686 -113.1294 65° Northeast 506 582 33,000  Level Salt Lake Center
05:21PM 42.0269 -112.9606 65° Northeast 500 575 33,000  Level Salt Lake Center
05:22PM 42.0853 -112.7900 65° Northeast 501 577 33,000  Level Salt Lake Center
05:23PM 42.1422 -112.6197 66° East 499 574 33,000  Level Salt Lake Center
05:24PM 42.1997 -112.4486 66° East 500 575 33,000  Level Salt Lake Center
05:25PM 42.2567 -112.2792 66° East 498 573 33,000  Level Salt Lake Center
05:26PM 42.3122 -112.1056 67° East 503 579 33,000  Level Salt Lake Center
05:27PM 42.3789 -111.8986 66° East 501 577 33,000  Level Salt Lake Center
05:28PM 42.4353 -111.7258 66° East 502 578 33,000  Level Salt Lake Center
05:29PM 42.4897 -111.5539 67° East 500 575 33,000  Level Salt Lake Center
05:30PM 42.5447 -111.3817 67° East 498 573 33,000  Level Salt Lake Center
05:31PM 42.5986 -111.2103 67° East 496 571 33,000  Level Salt Lake Center
05:32PM 42.6533 -111.0383 67° East 496 571 33,000  Level Salt Lake Center
05:33PM 42.7164 -110.8353 67° East 498 573 33,000  Level Salt Lake Center
05:34PM 42.7686 -110.6661 67° East 505 581 33,000  Level Salt Lake Center
05:35PM 42.8186 -110.5031 67° East 495 570 33,000  Level Salt Lake Center
05:36PM 42.8775 -110.3103 67° East 493 567 33,000  Level Salt Lake Center
05:37PM 42.9275 -110.1425 68° East 497 572 33,000  Level Salt Lake Center
05:38PM 42.9861 -109.9489 67° East 497 572 33,000  Level Salt Lake Center
05:39PM 43.0397 -109.7675 68° East 499 574 33,000  Level Salt Lake Center
05:40PM 43.0917 -109.5925 68° East 499 574 33,000  Level Salt Lake Center
05:41PM 43.1422 -109.4194 68° East 493 567 33,000  Level Salt Lake Center
05:42PM 43.1928 -109.2483 68° East 489 563 33,000  Level Salt Lake Center
05:43PM 43.2431 -109.0744 68° East 491 565 33,000  Level Salt Lake Center
05:44PM 43.3033 -108.8667 68° East 492 566 33,000  Level Salt Lake Center
05:45PM 43.3531 -108.6883 69° East 500 575 33,000  Level Salt Lake Center
05:46PM 43.4025 -108.5150 69° East 493 567 33,000  Level Salt Lake Center
05:47PM 43.4522 -108.3408 68° East 491 565 33,000  Level Salt Lake Center
05:48PM 43.5031 -108.1661 68° East 494 568 33,000  Level Salt Lake Center
05:49PM 43.5539 -107.9919 68° East 493 567 33,000  Level Salt Lake Center
05:50PM 43.6158 -107.7847 68° East 491 565 33,000  Level Salt Lake Center
05:52PM 43.6669 -107.6083 68° East 496 571 33,000  Level Salt Lake Center
05:53PM 43.7169 -107.4314 69° East 498 573 33,000  Level Salt Lake Center
05:54PM 43.7678 -107.2564 68° East 494 568 33,000  Level Salt Lake Center
05:55PM 43.8169 -107.0814 69° East 494 568 33,000  Level Salt Lake Center
05:56PM 43.8717 -106.8928 68° East 493 567 33,000  Level Salt Lake Center
05:57PM 43.9189 -106.7225 69° East 493 567 33,000  Level Salt Lake Center
05:58PM 43.9778 -106.5142 68° East 499 574 33,000  Level Salt Lake Center
05:59PM 44.0294 -106.3208 70° East 494 568 33,000  Level Denver Center
06:00PM 44.0733 -106.1464 71° East 497 572 33,000  Level Denver Center
06:01PM 44.1178 -105.9708 71° East 500 575 33,000  Level Denver Center
06:02PM 44.1689 -105.7647 71° East 501 577 33,000  Level Denver Center
06:03PM 44.2258 -105.5317 71° East 500 575 33,000  Level Denver Center
06:04PM 44.2669 -105.3567 72° East 498 573 33,000  Level Denver Center
06:05PM 44.3164 -105.1533 71° East 497 572 33,000  Level Denver Center
06:06PM 44.3583 -104.9781 71° East 497 572 33,000  Level Denver Center
06:07PM 44.3994 -104.8044 72° East 494 568 33,000  Level Denver Center
06:08PM 44.4472 -104.6025 72° East 490 564 33,000  Level Denver Center
06:09PM 44.4878 -104.4292 72° East 489 563 33,000  Level Denver Center
06:10PM 44.5342 -104.2283 72° East 486 559 33,000  Level Denver Center
06:11PM 44.5731 -104.0578 72° East 482 555 33,000  Level Denver Center
06:12PM 44.6186 -103.8578 72° East 481 554 33,000  Level Denver Center
06:13PM 44.6567 -103.6856 73° East 481 554 33,000  Level Denver Center
06:14PM 44.6978 -103.5031 72° East 482 555 33,000  Level Denver Center
06:15PM 44.7375 -103.3242 73° East 483 556 33,000  Level Denver Center
06:17PM 44.7758 -103.1439 73° East 482 555 33,000  Level Denver Center
06:18PM 44.8317 -102.8922 73° East 481 554 33,000  Level Denver Center
06:19PM 44.8700 -102.7122 73° East 481 554 33,000  Level Denver Center
06:20PM 44.9083 -102.5344 73° East 478 550 33,000  Level Denver Center
06:21PM 44.9458 -102.3575 73° East 472 543 33,000  Level Denver Center
06:22PM 44.9769 -102.1783 76° East 470 541 33,000  Level Denver Center
06:23PM 44.9678 -101.9853 94° East 489 563 33,000  Level Denver Center
06:24PM 44.9567 -101.7511 94° East 498 573 33,000  Level Denver Center
06:25PM 44.9486 -101.5586 93° East 495 570 33,000  Level Denver Center
06:26PM 44.9394 -101.3650 94° East 496 571 33,000  Level Minneapolis Center
06:27PM 44.9303 -101.1706 94° East 498 573 33,000  Level Minneapolis Center
06:28PM 44.9200 -100.9375 93° East 499 574 33,000  Level Minneapolis Center
06:29PM 44.9097 -100.7422 94° East 501 577 33,000  Level Minneapolis Center
06:30PM 44.8969 -100.5481 95° East 500 575 33,000  Level Minneapolis Center
06:31PM 44.8864 -100.3539 94° East 501 577 33,000  Level Minneapolis Center
06:32PM 44.8750 -100.1606 95° East 501 577 33,000  Level Minneapolis Center
06:33PM 44.8611 -99.9314 95° East 501 577 33,000  Level Minneapolis Center
06:34PM 44.8497 -99.7403 95° East 501 577 33,000  Level Minneapolis Center
06:35PM 44.8372 -99.5472 95° East 501 577 33,000  Level Minneapolis Center
06:36PM 44.8256 -99.3533 95° East 501 577 33,000  Level Minneapolis Center
06:37PM 44.8117 -99.1586 96° East 502 578 33,000  Level Minneapolis Center
06:38PM 44.7989 -98.9647 95° East 501 577 33,000  Level Minneapolis Center
06:39PM 44.7819 -98.7347 96° East 496 571 33,000  Level Minneapolis Center
06:40PM 44.7678 -98.5433 96° East 494 568 33,000  Level Minneapolis Center
06:41PM 44.7553 -98.3714 96° East 493 567 33,000  Level Minneapolis Center
06:43PM 44.7436 -98.1792 95° East 493 567 33,000 -60 Level Minneapolis Center
06:44PM 44.7253 -97.9503 96° East 492 566 32,900 -540 Descending Minneapolis Center
06:45PM 44.7092 -97.7583 97° East 494 568 31,900 -960 Descending Minneapolis Center
06:46PM 44.6931 -97.5639 97° East 500 575 31,000 -480 Descending Minneapolis Center
06:47PM 44.6756 -97.3703 97° East 501 577 31,000  Level Minneapolis Center
06:48PM 44.6611 -97.1847 96° East 480 552 31,000  Level Minneapolis Center
06:49PM 44.6483 -97.0044 96° East 467 537 31,000  Level Minneapolis Center
06:50PM 44.6867 -96.8503 71° East 418 481 31,000  Level Minneapolis Center
06:51PM 44.7308 -96.7014 67° East 412 474 31,000  Level Minneapolis Center
06:52PM 44.7325 -96.5269 89° East 458 527 31,000  Level Minneapolis Center
06:53PM 44.6919 -96.3064 104° East 482 555 31,000 -420 Level Minneapolis Center
06:54PM 44.6589 -96.1261 104° East 475 547 30,200 -900 Descending Minneapolis Center
06:55PM 44.6278 -95.9642 105° East 437 503 29,200 -960 Descending Minneapolis Center
06:56PM 44.5992 -95.8097 105° East 411 473 28,300 -960 Descending Minneapolis Center
06:57PM 44.5683 -95.6456 105° East 429 494 27,300 -1,020 Descending Minneapolis Center
06:58PM 44.5353 -95.4747 105° East 449 517 26,300 -960 Descending Minneapolis Center
06:59PM 44.5022 -95.3056 105° East 450 518 25,400 -960 Descending Minneapolis Center
07:00PM 44.4728 -95.1394 104° East 444 511 24,400 -1,080 Descending Minneapolis Center
07:01PM 44.5078 -94.9628 74° East 399 459 23,200 -1,080 Descending Minneapolis Center
07:02PM 44.5414 -94.8214 72° East 387 445 22,300 -1,560 Descending Minneapolis Center
07:03PM 44.5739 -94.6806 72° East 382 440 20,100 -2,220 Descending Minneapolis Center
07:04PM 44.6022 -94.5586 72° East 376 433 17,800 -2,580 Descending Minneapolis Center
07:05PM 44.6378 -94.4017 72° East 350 403 14,900 -2,160 Descending Minneapolis Center
07:06PM 44.6664 -94.2750 72° East 341 392 13,400 -1,860 Descending Minneapolis Center
07:07PM 44.6939 -94.1525 72° East 330 380 11,200 -1,200 Descending Minneapolis Center
07:08PM 44.7214 -94.0317 72° East 325 374 11,000 -120 Descending Minneapolis Center
07:09PM 44.7481 -93.9119 73° East 323 372 11,000  Level Minneapolis Center
07:10PM 44.7747 -93.7914 73° East 323 372 11,000 -300 Level Minneapolis Center
07:11PM 44.8014 -93.6725 72° East 319 367 10,400 -660 Descending Minneapolis Center
07:12PM 44.8242 -93.5664 73° East 287 330 9,700 -840 Descending Minneapolis Center
07:13PM 44.8481 -93.4583 73° East 242 278 8,800 -840 Descending Minneapolis Center
07:14PM 44.8619 -93.3739 77° East 224 258 8,000 -720 Descending Minneapolis Center
07:15PM 44.8078 -93.3428 158° South 231 266 7,400 -900 Descending Minneapolis Center
07:16PM 44.7467 -93.3386 177° South 225 259 6,200 -1,200 Descending Minneapolis Center
07:17PM 44.6850 -93.3283 173° South 229 264 5,000 -840 Descending Minneapolis Center
07:18PM 44.6561 -93.2528 118° Southeast 183 211 4,500 -540 Descending Minneapolis Center
07:20PM 44.6861 -93.2100 45° Northeast 176 203 4,000 -360 Descending Minneapolis Center
07:21PM 44.7311 -93.2017 North 167 192 3,800 -540 Descending Minneapolis Center
07:22PM 44.7731 -93.2125 350° North 163 188 2,900 -900 Descending Minneapolis Center
07:23PM 44.8142 -93.2233 349° North 130 150 2,000 -840 Descending Minneapolis Center
07:24PM 44.8483 -93.2322 350° North 126 145 1,300 -720 Descending Minneapolis Center